Time;durP1;ratioP1;P1;durP2;ratioP2;P2;SDS_P1;SDS_P2;PMS_P1;PMS_P2;Temp;Humidity;BMP_temperature;BMP_pressure;BME280_temperature;BME280_humidity;BME280_pressure;Samples;Min_cycle;Max_cycle;Signal;HPM_P1;HPM_P2
2022/07/04 00:01:01;;;;;;;8.20;6.53;;;;;;;26.42;58.91;101003.28;5036757;28;20409;-78
2022/07/04 00:03:28;;;;;;;7.93;6.15;;;;;;;26.41;58.08;100993.41;5036688;28;20401;-79
2022/07/04 00:05:55;;;;;;;7.32;6.00;;;;;;;26.43;58.61;100994.09;5036507;28;20458;-79
2022/07/04 00:08:23;;;;;;;8.25;6.80;;;;;;;26.39;60.85;100993.59;5035654;28;20060;-79
2022/07/04 00:10:50;;;;;;;9.90;7.60;;;;;;;26.36;61.17;100995.81;5016732;28;20042;-80
2022/07/04 00:13:17;;;;;;;7.57;6.00;;;;;;;26.36;58.76;100988.50;5020496;28;20380;-79
2022/07/04 00:15:45;;;;;;;6.60;5.93;;;;;;;26.40;58.34;100997.16;5032602;28;20049;-80
2022/07/04 00:18:12;;;;;;;7.97;6.50;;;;;;;26.44;57.90;100998.50;5017587;28;20054;-80
2022/07/04 00:20:39;;;;;;;6.82;6.15;;;;;;;26.47;57.91;101006.34;5035580;28;20409;-79
2022/07/04 00:23:07;;;;;;;6.72;5.95;;;;;;;26.51;57.90;101001.41;5036591;28;20404;-80
2022/07/04 00:25:34;;;;;;;9.45;5.70;;;;;;;26.53;57.80;100997.47;5035690;28;20053;-80
2022/07/04 00:28:01;;;;;;;8.43;6.22;;;;;;;26.55;57.32;101000.88;5032701;28;20064;-79
2022/07/04 00:30:29;;;;;;;6.15;5.65;;;;;;;26.58;57.39;101005.97;5020661;28;20054;-78
2022/07/04 00:32:56;;;;;;;6.85;6.22;;;;;;;26.60;57.34;101003.91;5016240;28;20523;-78
2022/07/04 00:35:24;;;;;;;7.88;6.22;;;;;;;26.62;57.16;100991.03;5024243;28;20057;-78
2022/07/04 00:37:51;;;;;;;7.00;5.82;;;;;;;26.65;56.66;100994.38;5035456;28;20489;-78
2022/07/04 00:40:18;;;;;;;7.00;5.65;;;;;;;26.65;56.60;100992.50;5036523;28;20045;-78
2022/07/04 00:42:46;;;;;;;6.60;5.90;;;;;;;26.67;56.79;100982.34;5035717;28;20400;-79
2022/07/04 00:45:13;;;;;;;7.28;5.82;;;;;;;26.68;56.61;100978.59;5033973;28;20046;-79
2022/07/04 00:47:40;;;;;;;9.63;5.68;;;;;;;26.69;56.20;100977.56;5035600;28;20049;-79
2022/07/04 00:50:08;;;;;;;9.60;6.03;;;;;;;26.71;56.43;100983.69;5035124;28;20060;-78
2022/07/04 00:52:35;;;;;;;7.55;5.68;;;;;;;26.73;56.23;100987.03;5034999;28;20046;-78
2022/07/04 00:55:03;;;;;;;6.63;5.78;;;;;;;26.73;55.91;100989.75;5034372;28;20049;-79
2022/07/04 00:57:31;;;;;;;6.50;5.50;;;;;;;26.74;56.34;100983.34;5035369;28;20052;-79
2022/07/04 00:59:58;;;;;;;7.53;6.00;;;;;;;26.76;55.95;100991.28;5036851;28;20045;-79
2022/07/04 01:02:25;;;;;;;6.63;5.90;;;;;;;26.78;55.68;100998.25;5035405;28;20057;-79
2022/07/04 01:04:53;;;;;;;7.55;5.63;;;;;;;26.77;55.97;100991.09;5035817;28;20041;-78
2022/07/04 01:07:21;;;;;;;5.72;5.22;;;;;;;26.79;55.63;100990.94;5036503;28;20045;-79
2022/07/04 01:09:48;;;;;;;6.93;6.00;;;;;;;26.80;55.74;100992.63;5035090;28;20052;-79
2022/07/04 01:12:27;;;;;;;6.10;5.57;;;;;;;26.81;55.59;100986.16;5033103;28;20053;-78
2022/07/04 01:14:54;;;;;;;6.88;5.70;;;;;;;26.82;55.46;100983.28;5034536;28;20377;-78
2022/07/04 01:17:22;;;;;;;5.45;4.95;;;;;;;26.83;55.45;100973.25;5015582;28;20054;-80
2022/07/04 01:19:49;;;;;;;5.93;5.43;;;;;;;26.84;55.23;100973.06;5015162;28;20060;-80
2022/07/04 01:22:18;;;;;;;6.80;6.15;;;;;;;26.85;55.22;100977.47;5015272;28;20046;-79
2022/07/04 01:24:45;;;;;;;6.45;5.85;;;;;;;26.86;55.25;100970.19;5014117;28;20445;-78
2022/07/04 01:27:15;;;;;;;6.05;5.45;;;;;;;26.86;55.78;100981.06;5014390;28;20042;-79
2022/07/04 01:29:42;;;;;;;7.57;5.40;;;;;;;26.87;55.40;100980.88;5018426;28;20057;-79
2022/07/04 01:32:10;;;;;;;6.43;5.82;;;;;;;26.89;55.46;100988.84;5015331;28;20428;-80
2022/07/04 01:34:38;;;;;;;7.65;5.63;;;;;;;26.88;55.45;100982.56;5015947;28;20408;-79
2022/07/04 01:37:10;;;;;;;6.95;5.82;;;;;;;26.90;55.19;100989.69;5033455;28;20053;-79
2022/07/04 01:39:38;;;;;;;5.95;5.45;;;;;;;26.91;54.88;100991.41;5034248;28;20515;-80
2022/07/04 01:42:05;;;;;;;7.13;6.35;;;;;;;26.91;55.04;100992.25;5033074;28;20394;-79
2022/07/04 01:44:33;;;;;;;6.75;5.57;;;;;;;26.93;54.86;100986.63;5035072;28;20041;-80
2022/07/04 01:47:02;;;;;;;6.00;5.43;;;;;;;26.93;55.08;100975.75;5033383;28;20045;-80
2022/07/04 01:49:29;;;;;;;7.05;5.53;;;;;;;26.94;54.99;100974.72;5032626;28;20053;-79
2022/07/04 01:51:56;;;;;;;6.30;5.70;;;;;;;26.95;55.05;100971.00;5034434;28;20045;-80
2022/07/04 01:54:25;;;;;;;6.10;5.60;;;;;;;26.96;54.72;100964.53;5032813;28;20504;-80
2022/07/04 01:56:53;;;;;;;6.93;5.90;;;;;;;26.97;54.76;100968.94;5032897;28;20060;-79
2022/07/04 02:01:29;;;;;;;6.22;5.60;;;;;;;26.97;55.03;100963.50;5033034;28;20053;-79
2022/07/04 02:02:07;;;;;;;6.30;5.45;;;;;;;26.96;54.82;100965.38;5034494;28;20054;-80
2022/07/04 02:04:37;;;;;;;6.22;5.72;;;;;;;26.99;54.50;100970.44;5033536;28;20052;-80
2022/07/04 02:07:05;;;;;;;6.40;5.80;;;;;;;27.00;54.72;100976.72;5034207;28;20049;-79
2022/07/04 02:09:33;;;;;;;5.97;5.45;;;;;;;26.99;54.56;100973.16;5033749;28;20056;-79
2022/07/04 02:14:46;;;;;;;6.50;5.90;;;;;;;27.00;54.52;100974.84;5034125;28;20393;-79
2022/07/04 02:17:14;;;;;;;6.03;5.43;;;;;;;27.02;54.51;100985.53;5032921;28;20041;-79
2022/07/04 02:19:42;;;;;;;5.57;5.07;;;;;;;27.02;54.66;100980.97;5033520;28;20052;-79
2022/07/04 02:22:09;;;;;;;5.72;5.22;;;;;;;27.04;54.54;100983.50;5033932;28;20401;-78
2022/07/04 02:24:37;;;;;;;6.47;5.88;;;;;;;27.04;54.75;100980.78;5033013;28;20508;-78
2022/07/04 02:27:04;;;;;;;6.55;5.13;;;;;;;27.05;54.25;100983.31;5032100;28;20068;-79
2022/07/04 02:29:32;;;;;;;5.80;5.30;;;;;;;27.05;54.60;100975.16;5032431;28;20044;-80
2022/07/04 02:31:59;;;;;;;5.63;5.05;;;;;;;27.05;54.46;100972.44;5023978;28;20040;-80
2022/07/04 02:34:26;;;;;;;6.55;5.95;;;;;;;27.06;54.24;100962.41;5033833;28;20037;-80
2022/07/04 02:36:54;;;;;;;8.02;5.68;;;;;;;27.06;54.50;100963.28;5032138;28;20045;-79
2022/07/04 02:39:21;;;;;;;5.32;4.88;;;;;;;27.07;54.93;100973.13;5033430;28;20041;-77
2022/07/04 02:41:49;;;;;;;5.90;5.30;;;;;;;27.09;54.98;100972.94;5033805;28;20061;-79
2022/07/04 02:44:23;;;;;;;6.72;5.65;;;;;;;27.08;54.81;100977.53;5033334;28;20049;-78
2022/07/04 02:46:50;;;;;;;7.25;5.80;;;;;;;27.08;55.19;100973.97;5033154;28;20409;-81
2022/07/04 02:49:18;;;;;;;6.63;5.90;;;;;;;27.08;55.57;100968.53;5033432;28;20060;-78
2022/07/04 02:51:45;;;;;;;8.85;5.82;;;;;;;27.08;55.01;100980.25;5031625;28;20045;-78
2022/07/04 02:54:13;;;;;;;7.47;5.95;;;;;;;27.09;55.01;100978.38;5032904;28;20045;-78
2022/07/04 02:56:40;;;;;;;6.55;5.95;;;;;;;27.08;55.02;100974.81;5033102;28;20050;-79
2022/07/04 02:59:08;;;;;;;9.55;5.70;;;;;;;27.09;54.89;100967.50;5033132;28;20504;-79
2022/07/04 03:01:35;;;;;;;5.70;5.10;;;;;;;27.09;55.01;100970.22;5032766;28;20045;-79
2022/07/04 03:04:03;;;;;;;6.63;6.03;;;;;;;27.10;54.89;100972.81;5032767;28;20068;-78
2022/07/04 03:06:31;;;;;;;7.10;6.00;;;;;;;27.09;55.38;100981.91;5031748;28;20052;-78
2022/07/04 03:08:58;;;;;;;7.53;6.00;;;;;;;27.10;55.21;100985.50;5032809;28;20053;-79
2022/07/04 03:11:26;;;;;;;7.28;6.45;;;;;;;27.10;55.38;100974.66;5032778;28;20056;-78
2022/07/04 03:13:53;;;;;;;6.80;6.07;;;;;;;27.11;55.18;100974.47;5033353;28;20046;-78
2022/07/04 03:16:21;;;;;;;7.47;5.93;;;;;;;27.11;55.29;100977.19;5031426;28;20046;-79
2022/07/04 03:18:48;;;;;;;7.05;5.90;;;;;;;27.11;55.11;100979.91;5032616;28;20049;-78
2022/07/04 03:21:16;;;;;;;7.75;6.43;;;;;;;27.12;55.14;100986.19;5032688;28;20045;-79
2022/07/04 03:23:57;;;;;;;8.18;6.03;;;;;;;27.13;55.07;100990.59;5032579;28;20045;-79
2022/07/04 03:26:32;;;;;;;6.72;5.95;;;;;;;27.14;55.02;100995.00;5047867;28;20053;-79
2022/07/04 03:29:00;;;;;;;6.55;5.95;;;;;;;27.13;55.28;100998.75;5032558;28;20049;-79
2022/07/04 03:31:29;;;;;;;7.43;6.35;;;;;;;27.15;55.12;101004.03;5031248;28;20064;-78
2022/07/04 03:33:56;;;;;;;6.55;5.95;;;;;;;27.15;54.97;101001.31;5013885;28;20042;-79
2022/07/04 03:36:23;;;;;;;6.72;6.13;;;;;;;27.16;55.49;101013.88;5018893;28;20038;-79
2022/07/04 03:38:51;;;;;;;7.15;6.32;;;;;;;27.15;55.28;101017.63;5032429;28;20053;-78
2022/07/04 03:41:18;;;;;;;6.53;5.75;;;;;;;27.15;55.05;101014.91;5032483;28;20053;-79
2022/07/04 03:43:46;;;;;;;6.53;5.93;;;;;;;27.15;54.77;101017.63;5031321;28;20061;-78
2022/07/04 03:46:13;;;;;;;7.85;6.22;;;;;;;27.15;54.96;101018.47;5032265;28;20050;-77
2022/07/04 03:48:43;;;;;;;6.90;6.22;;;;;;;27.16;54.91;101014.72;5032303;28;20065;-77
2022/07/04 03:51:13;;;;;;;6.80;6.20;;;;;;;27.16;55.18;101022.84;5032822;28;20508;-77
2022/07/04 03:53:42;;;;;;;7.03;6.32;;;;;;;27.17;55.12;101029.13;5032417;28;20067;-77
2022/07/04 03:56:09;;;;;;;6.18;5.68;;;;;;;27.17;55.09;101026.41;5032348;28;20064;-79
2022/07/04 03:58:37;;;;;;;6.97;6.35;;;;;;;27.18;54.84;101028.09;5031637;28;20514;-79
2022/07/04 04:01:05;;;;;;;8.10;6.05;;;;;;;27.18;55.17;101028.09;5031026;28;20065;-77
2022/07/04 04:06:19;;;;;;;6.35;5.75;;;;;;;27.20;55.06;101015.19;5032731;28;20052;-77
2022/07/04 04:08:46;;;;;;;6.68;6.03;;;;;;;27.20;55.21;101023.34;5030549;28;20052;-77
2022/07/04 04:11:13;;;;;;;7.25;6.10;;;;;;;27.20;55.26;101020.63;5030910;28;20045;-77
2022/07/04 04:13:41;;;;;;;6.32;5.72;;;;;;;27.21;55.06;101016.88;5032458;28;20042;-77
2022/07/04 04:16:08;;;;;;;6.68;6.03;;;;;;;27.22;54.89;101024.00;5030980;28;20052;-77
2022/07/04 04:18:36;;;;;;;6.43;5.85;;;;;;;27.22;55.33;101029.44;5031918;28;20046;-77
2022/07/04 04:21:04;;;;;;;6.28;5.72;;;;;;;27.24;55.09;101030.13;5032595;28;20049;-77
2022/07/04 04:23:31;;;;;;;6.97;6.38;;;;;;;27.23;55.30;101031.16;5032090;28;20046;-77
2022/07/04 04:25:59;;;;;;;6.70;6.10;;;;;;;27.24;55.15;101038.28;5031871;28;20397;-77
2022/07/04 04:28:26;;;;;;;7.32;6.05;;;;;;;27.24;54.76;101036.41;5035108;28;20041;-77
2022/07/04 04:30:53;;;;;;;8.65;5.90;;;;;;;27.24;54.96;101033.69;5034422;28;20041;-79
2022/07/04 04:33:21;;;;;;;7.72;6.93;;;;;;;27.25;55.07;101039.97;5021607;28;20057;-79
2022/07/04 04:35:48;;;;;;;8.70;6.68;;;;;;;27.25;54.92;101040.81;5015860;28;20046;-77
2022/07/04 04:38:16;;;;;;;6.40;5.90;;;;;;;27.25;54.71;101046.25;5030608;28;20077;-77
2022/07/04 04:40:43;;;;;;;7.40;6.70;;;;;;;27.26;54.91;101047.09;5015871;28;20041;-77
2022/07/04 04:43:10;;;;;;;8.23;7.10;;;;;;;27.26;54.62;101041.66;5015979;28;20049;-77
2022/07/04 04:45:39;;;;;;;7.63;6.78;;;;;;;27.26;54.97;101047.94;5015613;28;20089;-77
2022/07/04 04:48:07;;;;;;;7.32;6.63;;;;;;;27.28;54.30;101042.31;5030378;28;20058;-77
2022/07/04 04:50:35;;;;;;;6.35;5.85;;;;;;;27.29;54.53;101041.28;5018227;28;20064;-77
2022/07/04 04:53:02;;;;;;;6.78;6.10;;;;;;;27.27;54.54;101036.06;5035133;28;20485;-77
2022/07/04 04:55:29;;;;;;;6.40;5.80;;;;;;;27.29;54.52;101042.13;5035155;28;20053;-77
2022/07/04 04:57:57;;;;;;;6.35;5.85;;;;;;;27.29;54.49;101038.56;5034233;28;20053;-77
2022/07/04 05:00:24;;;;;;;7.03;6.25;;;;;;;27.29;54.50;101027.69;5035102;28;20038;-77
2022/07/04 05:02:52;;;;;;;7.07;6.40;;;;;;;27.31;54.80;101033.81;5034775;28;20046;-77
2022/07/04 05:05:20;;;;;;;7.00;6.30;;;;;;;27.31;54.45;101023.78;5035292;28;20053;-77
2022/07/04 05:07:47;;;;;;;7.00;6.40;;;;;;;27.32;54.34;101016.47;5035231;28;20052;-77
2022/07/04 05:10:15;;;;;;;10.38;6.82;;;;;;;27.33;54.54;101021.72;5034855;28;20049;-77
2022/07/04 05:12:43;;;;;;;7.88;7.03;;;;;;;27.33;54.09;101020.88;5034766;28;20408;-77
2022/07/04 05:15:10;;;;;;;6.57;5.85;;;;;;;27.33;54.22;101015.44;5035047;28;20060;-77
2022/07/04 05:17:38;;;;;;;7.40;6.70;;;;;;;27.32;54.22;101017.31;5033499;28;20041;-77
2022/07/04 05:20:06;;;;;;;8.88;7.53;;;;;;;27.33;53.95;101015.44;5033475;28;20050;-77
2022/07/04 05:22:34;;;;;;;7.70;6.13;;;;;;;27.34;53.91;101011.69;5034972;28;20041;-77
2022/07/04 05:25:02;;;;;;;7.43;5.78;;;;;;;27.34;53.85;101017.13;5033344;28;20523;-79
2022/07/04 05:27:30;;;;;;;8.07;6.53;;;;;;;27.34;53.90;101008.97;5034613;28;20432;-79
2022/07/04 05:29:58;;;;;;;6.90;6.20;;;;;;;27.34;53.94;101007.09;5033055;28;20076;-79
2022/07/04 05:32:26;;;;;;;6.22;5.72;;;;;;;27.35;53.90;101014.25;5033995;28;20432;-79
2022/07/04 05:34:54;;;;;;;6.68;5.97;;;;;;;27.36;53.81;101015.09;5013682;28;20038;-79
2022/07/04 05:37:21;;;;;;;7.93;6.15;;;;;;;27.38;54.08;101014.91;5021992;28;20049;-78
2022/07/04 05:39:49;;;;;;;6.95;5.75;;;;;;;27.38;54.23;101013.03;5032125;28;20045;-76
2022/07/04 05:42:17;;;;;;;6.40;5.63;;;;;;;27.38;54.20;101023.91;5034377;28;20056;-77
2022/07/04 05:44:44;;;;;;;6.40;5.82;;;;;;;27.38;53.75;101018.47;5034304;28;20069;-76
2022/07/04 05:47:12;;;;;;;6.00;5.50;;;;;;;27.40;53.86;101021.00;5033111;28;20060;-77
2022/07/04 05:49:40;;;;;;;6.65;6.05;;;;;;;27.40;54.00;101024.56;5034146;28;20049;-77
2022/07/04 05:52:07;;;;;;;6.25;5.70;;;;;;;27.41;54.03;101019.97;5032949;28;20053;-77
2022/07/04 05:54:35;;;;;;;6.07;5.45;;;;;;;27.40;53.95;101005.53;5034424;28;20045;-77
2022/07/04 05:57:02;;;;;;;6.07;5.45;;;;;;;27.41;53.66;101012.66;5034586;28;20049;-77
2022/07/04 05:59:30;;;;;;;6.72;5.63;;;;;;;27.42;53.65;101008.06;5035402;28;20116;-77
2022/07/04 06:01:57;;;;;;;7.72;6.63;;;;;;;27.44;53.96;101025.06;5034991;28;20057;-77
2022/07/04 06:04:24;;;;;;;6.43;5.93;;;;;;;27.43;53.51;101032.38;5034076;28;20045;-77
2022/07/04 06:06:52;;;;;;;6.43;5.80;;;;;;;27.44;53.90;101039.50;5034167;28;20041;-77
2022/07/04 06:09:19;;;;;;;7.22;6.28;;;;;;;27.44;53.63;101027.78;5032721;28;20042;-77
2022/07/04 06:11:46;;;;;;;6.45;5.80;;;;;;;27.44;53.72;101025.91;5033999;28;20401;-77
2022/07/04 06:14:14;;;;;;;6.15;5.50;;;;;;;27.45;53.90;101026.75;5034867;28;20041;-78
2022/07/04 06:16:41;;;;;;;6.60;5.95;;;;;;;27.46;53.59;101028.44;5029735;28;20053;-77
2022/07/04 06:19:09;;;;;;;6.90;5.72;;;;;;;27.47;53.40;101032.88;5014990;28;20050;-77
2022/07/04 06:21:36;;;;;;;6.00;5.25;;;;;;;27.47;53.69;101027.44;5014034;28;20049;-77
2022/07/04 06:24:04;;;;;;;6.80;5.57;;;;;;;27.47;53.60;101019.28;5014789;28;20050;-77
2022/07/04 06:26:31;;;;;;;6.45;5.35;;;;;;;27.47;53.21;101016.56;5013764;28;20056;-77
2022/07/04 06:28:58;;;;;;;7.18;5.25;;;;;;;27.48;53.36;101024.53;5013470;28;20050;-77
2022/07/04 06:31:26;;;;;;;6.22;5.63;;;;;;;27.48;53.09;101010.91;5014374;28;20084;-77
2022/07/04 06:36:39;;;;;;;6.25;5.65;;;;;;;27.48;53.01;101002.75;5015078;28;20034;-78
2022/07/04 06:39:06;;;;;;;6.85;5.38;;;;;;;27.49;52.46;101009.88;5013782;28;20054;-77
2022/07/04 06:41:34;;;;;;;6.25;5.65;;;;;;;27.49;52.94;101007.16;5014473;28;20049;-77
2022/07/04 06:44:01;;;;;;;5.68;5.10;;;;;;;27.50;52.38;101005.28;5014381;28;20058;-77
2022/07/04 06:46:28;;;;;;;6.50;5.03;;;;;;;27.51;52.98;101004.28;5014193;28;20050;-78
2022/07/04 06:48:56;;;;;;;6.00;5.40;;;;;;;27.51;52.51;101005.13;5014847;28;20046;-77
2022/07/04 06:51:23;;;;;;;6.07;5.47;;;;;;;27.52;52.79;101003.25;5021285;28;20461;-77
2022/07/04 06:53:51;;;;;;;6.00;4.90;;;;;;;27.51;52.98;101002.41;5032554;28;20061;-77
2022/07/04 06:56:19;;;;;;;7.07;5.68;;;;;;;27.52;52.20;101004.09;5033324;28;20050;-77
2022/07/04 06:58:46;;;;;;;6.30;5.70;;;;;;;27.51;51.29;101005.13;5032910;28;20052;-77
2022/07/04 07:01:16;;;;;;;7.82;5.25;;;;;;;27.51;51.36;100994.25;5033580;28;20102;-76
2022/07/04 07:03:43;;;;;;;9.10;5.10;;;;;;;27.52;50.90;101000.53;5033093;28;20046;-77
2022/07/04 07:06:11;;;;;;;6.75;5.40;;;;;;;27.52;51.46;100995.94;5033870;28;20046;-77
2022/07/04 07:08:38;;;;;;;7.97;5.32;;;;;;;27.53;52.18;100989.47;5015929;28;20386;-77
2022/07/04 07:11:17;;;;;;;11.05;5.15;;;;;;;27.53;51.82;100989.47;5033942;28;20056;-81
2022/07/04 07:13:47;;;;;;;8.65;5.45;;;;;;;27.54;51.58;100999.31;5032685;28;20041;-76
2022/07/04 07:16:14;;;;;;;10.55;5.88;;;;;;;27.56;51.86;100997.25;5030811;28;20041;-75
2022/07/04 07:18:43;;;;;;;6.47;5.03;;;;;;;27.57;52.12;100988.06;5032917;28;20421;-76
2022/07/04 07:21:10;;;;;;;7.10;5.80;;;;;;;27.58;52.22;100984.31;5027552;28;20060;-76
2022/07/04 07:23:40;;;;;;;8.32;5.22;;;;;;;27.60;52.25;100992.31;5013686;28;20052;-76
2022/07/04 07:26:08;;;;;;;5.50;4.65;;;;;;;27.62;52.63;100990.22;5026152;28;20069;-74
2022/07/04 07:28:35;;;;;;;6.20;4.68;;;;;;;27.63;52.80;100991.94;5032975;28;20046;-75
2022/07/04 07:31:03;;;;;;;7.68;5.68;;;;;;;27.64;52.72;100990.06;5031080;28;20056;-74
2022/07/04 07:33:30;;;;;;;6.75;5.75;;;;;;;27.65;52.96;100986.31;5032842;28;20056;-75
2022/07/04 07:35:57;;;;;;;7.78;5.18;;;;;;;27.66;52.67;100998.88;5018800;28;20046;-75
2022/07/04 07:38:25;;;;;;;5.97;5.38;;;;;;;27.66;52.89;100988.84;5024556;28;20358;-75
2022/07/04 07:40:52;;;;;;;6.93;4.97;;;;;;;27.68;53.01;100992.25;5031248;28;20057;-77
2022/07/04 07:43:19;;;;;;;6.45;5.80;;;;;;;27.68;52.51;100988.66;5032397;28;20060;-77
2022/07/04 07:45:47;;;;;;;7.65;6.70;;;;;;;27.69;51.80;100984.91;5031398;28;20057;-74
2022/07/04 07:48:14;;;;;;;7.93;5.95;;;;;;;27.69;51.31;100988.47;5032486;28;20481;-74
2022/07/04 07:50:42;;;;;;;7.03;6.05;;;;;;;27.69;51.64;100980.31;5032260;28;20045;-74
2022/07/04 07:53:09;;;;;;;7.88;5.65;;;;;;;27.71;51.91;100978.28;5032120;28;20053;-75
2022/07/04 07:55:37;;;;;;;6.93;6.10;;;;;;;27.73;52.15;100980.81;5032809;28;20075;-75
2022/07/04 07:58:04;;;;;;;7.30;6.60;;;;;;;27.73;52.10;100967.19;5032608;28;20053;-74
2022/07/04 08:00:32;;;;;;;5.82;5.25;;;;;;;27.75;52.02;100965.16;5033075;28;20052;-76
2022/07/04 08:06:08;;;;;;;7.05;5.63;;;;;;;27.78;51.85;100971.06;5037327;28;20045;-75
2022/07/04 08:08:35;;;;;;;7.63;5.43;;;;;;;27.81;51.53;100972.59;5036885;28;20508;-75
2022/07/04 08:11:03;;;;;;;5.85;5.30;;;;;;;27.82;51.60;100966.13;5035471;28;20049;-75
2022/07/04 08:13:31;;;;;;;8.05;5.80;;;;;;;27.82;51.43;100960.69;5036823;28;20050;-76
2022/07/04 08:15:58;;;;;;;5.80;5.25;;;;;;;27.84;51.46;100958.63;5036800;28;20049;-75
2022/07/04 08:18:26;;;;;;;6.22;5.45;;;;;;;27.87;51.01;100960.13;5036498;28;20049;-75
2022/07/04 08:20:53;;;;;;;12.38;5.20;;;;;;;27.87;51.00;100955.50;5036541;28;20080;-76
2022/07/04 08:23:29;;;;;;;9.38;5.43;;;;;;;27.88;50.89;100954.50;5036645;28;20045;-76
2022/07/04 08:25:58;;;;;;;6.70;5.95;;;;;;;27.90;51.06;100954.31;5034548;28;20065;-75
2022/07/04 08:28:27;;;;;;;8.73;5.50;;;;;;;27.90;51.41;100957.88;5036352;28;20389;-76
2022/07/04 08:30:56;;;;;;;9.48;5.63;;;;;;;27.91;51.23;100959.56;5036577;28;20045;-77
2022/07/04 08:33:24;;;;;;;7.50;5.88;;;;;;;27.93;51.32;100967.56;5036474;28;20060;-76
2022/07/04 08:35:53;;;;;;;7.57;5.88;;;;;;;27.93;51.14;100968.41;5036710;28;20041;-74
2022/07/04 08:38:21;;;;;;;6.80;5.72;;;;;;;27.93;51.18;100965.66;5036726;28;20042;-76
2022/07/04 08:40:51;;;;;;;9.18;5.35;;;;;;;27.95;51.46;100968.19;5036609;28;20049;-76
2022/07/04 08:43:22;;;;;;;7.45;6.40;;;;;;;27.97;51.35;100974.31;5036718;28;20049;-78
2022/07/04 08:45:53;;;;;;;6.80;5.90;;;;;;;27.98;51.40;100981.44;5036574;28;20052;-77
2022/07/04 08:48:42;;;;;;;8.60;5.68;;;;;;;27.98;51.40;100971.41;5034318;28;20045;-78
2022/07/04 08:51:16;;;;;;;7.18;6.47;;;;;;;27.98;51.59;100974.13;5036341;28;20488;-76
2022/07/04 08:53:56;;;;;;;6.40;5.72;;;;;;;28.00;51.56;100976.66;5036468;28;20053;-75
2022/07/04 08:59:11;;;;;;;8.27;5.43;;;;;;;28.01;51.50;100975.63;5035694;28;20046;-76
2022/07/04 09:01:42;;;;;;;7.88;6.55;;;;;;;28.03;51.54;100987.16;5035693;28;20508;-75
2022/07/04 09:04:11;;;;;;;7.85;5.82;;;;;;;28.03;51.81;100988.00;5035602;28;20409;-77
2022/07/04 09:06:39;;;;;;;7.90;6.43;;;;;;;28.04;51.29;100987.00;5036283;28;20049;-77
2022/07/04 09:09:08;;;;;;;9.38;6.28;;;;;;;28.06;51.90;100984.06;5034736;28;20504;-77
2022/07/04 09:11:35;;;;;;;8.10;7.40;;;;;;;28.12;51.12;100985.22;5036183;28;20045;-77
2022/07/04 09:14:02;;;;;;;12.98;7.60;;;;;;;28.17;50.74;100977.34;5035319;28;20409;-76
2022/07/04 09:16:30;;;;;;;7.97;6.82;;;;;;;28.22;50.43;100970.28;5035877;28;20049;-75
2022/07/04 09:18:57;;;;;;;6.88;6.20;;;;;;;28.22;50.68;100978.47;5035536;28;20472;-75
2022/07/04 09:21:43;;;;;;;8.00;6.75;;;;;;;28.21;50.72;100982.22;5035481;28;20390;-75
2022/07/04 09:24:10;;;;;;;8.13;6.60;;;;;;;28.21;51.18;100976.78;5034259;28;20046;-75
2022/07/04 09:26:45;;;;;;;7.28;6.57;;;;;;;28.20;51.29;100979.69;5035275;28;20049;-75
2022/07/04 09:29:13;;;;;;;6.82;6.13;;;;;;;28.18;50.92;100971.69;5035823;28;20052;-77
2022/07/04 09:31:40;;;;;;;8.77;6.75;;;;;;;28.19;51.34;100980.69;5034537;28;20049;-76
2022/07/04 09:34:08;;;;;;;10.05;6.88;;;;;;;28.19;51.42;100981.53;5035347;28;20052;-75
2022/07/04 09:36:41;;;;;;;7.47;6.68;;;;;;;28.22;50.91;100977.63;5035821;28;20057;-75
2022/07/04 09:39:14;;;;;;;6.82;6.18;;;;;;;28.24;51.29;100981.00;5035520;28;20046;-76
2022/07/04 09:41:54;;;;;;;10.85;6.88;;;;;;;28.23;50.89;100990.19;5035301;28;20045;-75
2022/07/04 09:44:23;;;;;;;8.95;6.85;;;;;;;28.23;51.33;100991.03;5034869;28;20053;-76
2022/07/04 09:46:51;;;;;;;8.23;7.13;;;;;;;28.23;50.89;100987.47;5035927;28;20056;-77
2022/07/04 09:49:20;;;;;;;9.27;7.97;;;;;;;28.24;51.51;100981.00;5036326;28;20053;-76
2022/07/04 09:51:52;;;;;;;8.50;7.63;;;;;;;28.25;50.93;100985.41;5034836;28;20049;-74
2022/07/04 09:54:25;;;;;;;;;;;;;;;28.31;50.74;100990.94;5035040;28;20053;-75
2022/07/04 09:56:57;;;;;;;7.25;6.63;;;;;;;28.33;51.16;100990.78;5034715;28;19921;-76
2022/07/04 09:59:27;;;;;;;9.15;7.13;;;;;;;28.33;50.83;100986.16;5035010;28;20045;-78
2022/07/04 10:02:09;;;;;;;8.88;7.25;;;;;;;28.34;51.06;100987.00;5034900;28;20049;-76
2022/07/04 10:04:47;;;;;;;9.02;6.63;;;;;;;28.34;50.94;100984.28;5033997;28;20046;-77
2022/07/04 10:07:35;;;;;;;9.73;7.82;;;;;;;28.34;51.30;100990.56;5033738;28;20523;-80
2022/07/04 10:10:25;;;;;;;11.00;6.68;;;;;;;28.32;50.94;100973.59;5034992;28;20049;-75
2022/07/04 10:12:54;;;;;;;7.88;7.18;;;;;;;28.33;51.21;100977.16;5034509;28;20436;-77
2022/07/04 10:15:22;;;;;;;10.18;7.03;;;;;;;28.33;51.51;100990.78;5032701;28;20049;-76
2022/07/04 10:17:49;;;;;;;8.32;7.53;;;;;;;28.34;51.89;100978.84;5033327;28;20049;-77
2022/07/04 10:20:17;;;;;;;12.85;7.47;;;;;;;28.33;52.13;100988.03;5034194;28;20053;-77
2022/07/04 10:22:44;;;;;;;11.20;7.57;;;;;;;28.33;52.22;100986.16;5032733;28;20053;-76
2022/07/04 10:25:12;;;;;;;9.45;7.00;;;;;;;28.34;51.83;100976.13;5032092;28;20072;-79
2022/07/04 10:27:40;;;;;;;8.93;7.00;;;;;;;28.35;52.23;100969.63;5033649;28;20515;-77
2022/07/04 10:30:23;;;;;;;7.75;6.95;;;;;;;28.35;52.78;100967.75;5035173;28;20049;-78
2022/07/04 10:32:53;;;;;;;10.70;6.82;;;;;;;28.36;52.35;100963.19;5014966;28;20152;-76
2022/07/04 10:35:57;;;;;;;8.90;6.80;;;;;;;28.37;52.35;100944.97;5015430;28;20046;-76
2022/07/04 10:38:45;;;;;;;8.70;6.78;;;;;;;28.37;52.67;100953.16;5013772;28;20060;-75
2022/07/04 10:41:13;;;;;;;7.25;6.38;;;;;;;28.37;52.84;100964.88;5014480;28;20046;-77
2022/07/04 10:44:02;;;;;;;11.75;6.90;;;;;;;28.38;53.02;100955.69;5016556;28;20508;-77
2022/07/04 10:46:30;;;;;;;7.90;6.13;;;;;;;28.38;53.07;100969.28;5014922;28;20053;-77
2022/07/04 10:49:18;;;;;;;9.52;6.43;;;;;;;28.38;53.04;100973.91;5014839;28;20050;-78
2022/07/04 10:51:48;;;;;;;8.52;6.75;;;;;;;28.38;53.00;100977.47;5014108;28;20046;-78
2022/07/04 10:54:33;;;;;;;8.55;6.85;;;;;;;28.39;53.34;100984.59;5014000;28;20046;-77
2022/07/04 10:57:23;;;;;;;9.10;7.00;;;;;;;28.40;53.64;100990.88;5013941;28;20482;-76
2022/07/04 10:59:53;;;;;;;9.65;6.68;;;;;;;28.40;53.92;101002.63;5013601;28;20056;-77
2022/07/04 11:02:22;;;;;;;7.65;6.90;;;;;;;28.41;53.22;100998.88;5014309;28;20045;-75
2022/07/04 11:05:03;;;;;;;11.90;7.53;;;;;;;28.46;52.46;100998.31;5014909;28;20390;-75
2022/07/04 11:07:37;;;;;;;8.68;7.40;;;;;;;28.50;52.91;101003.19;5013769;28;20053;-78
2022/07/04 11:10:11;;;;;;;9.23;7.40;;;;;;;28.54;53.13;101001.78;5014495;28;20046;-76
2022/07/04 11:12:54;;;;;;;9.30;6.97;;;;;;;28.58;52.86;101003.09;5014426;28;20053;-78
2022/07/04 11:15:24;;;;;;;8.95;7.55;;;;;;;28.63;53.01;101002.50;5014921;28;20050;-75
2022/07/04 11:17:52;;;;;;;7.63;6.82;;;;;;;28.65;53.02;100992.28;5013591;28;20057;-77
2022/07/04 11:20:21;;;;;;;10.57;7.90;;;;;;;28.67;52.93;100989.34;5014491;28;20061;-76
2022/07/04 11:22:49;;;;;;;10.65;8.23;;;;;;;28.67;53.15;100984.75;5014417;28;20050;-77
2022/07/04 11:25:17;;;;;;;8.68;7.88;;;;;;;28.70;53.06;100981.66;5012735;28;20061;-76
2022/07/04 11:27:44;;;;;;;9.82;8.32;;;;;;;28.73;53.38;100984.00;5013387;28;20049;-76
2022/07/04 11:30:11;;;;;;;12.77;7.80;;;;;;;28.76;53.27;100974.59;5012773;28;20045;-77
2022/07/04 11:32:42;;;;;;;10.68;8.35;;;;;;;28.79;53.25;100976.94;5013924;28;20056;-77
2022/07/04 11:35:09;;;;;;;12.90;9.02;;;;;;;28.77;53.85;100971.69;5012767;28;20046;-76
2022/07/04 11:37:37;;;;;;;12.63;9.43;;;;;;;28.80;53.66;100970.44;5014866;28;20049;-76
2022/07/04 11:45:53;;;;;;;10.07;8.88;;;;;;;28.83;53.48;100970.06;5017599;28;20057;-76
2022/07/04 11:48:27;;;;;;;9.75;8.60;;;;;;;28.83;53.44;100975.53;5016017;28;20406;-76
2022/07/04 11:50:55;;;;;;;9.13;8.05;;;;;;;28.81;53.34;100972.16;5017427;28;20050;-76
2022/07/04 11:53:22;;;;;;;13.07;8.45;;;;;;;28.82;53.19;100973.84;5017308;28;20045;-76